createdAt,value
2022-12-19T00:03:25.477Z,6.13
2022-12-19T00:08:29.318Z,5.63
2022-12-19T00:13:40.722Z,6.32
2022-12-19T00:18:49.385Z,6.28
2022-12-19T00:23:54.045Z,6.43
2022-12-19T00:29:00.525Z,6.30
2022-12-19T00:34:06.069Z,6.57
2022-12-19T00:39:10.516Z,6.35
2022-12-19T00:44:17.160Z,6.53
2022-12-19T00:49:22.341Z,6.20
2022-12-19T00:54:26.507Z,6.35
2022-12-19T00:59:30.663Z,6.03
2022-12-19T01:04:41.262Z,5.88
2022-12-19T01:09:49.329Z,6.30
2022-12-19T01:15:04.663Z,5.88
2022-12-19T01:20:12.839Z,6.20
2022-12-19T01:25:17.116Z,6.10
2022-12-19T01:30:20.856Z,5.95
2022-12-19T01:35:26.782Z,5.82
2022-12-19T01:40:30.476Z,6.47
2022-12-19T01:45:38.380Z,5.82
2022-12-19T01:51:01.853Z,5.75
2022-12-19T01:56:11.578Z,5.75
2022-12-19T02:01:17.015Z,5.88
2022-12-19T02:06:22.948Z,5.35
2022-12-19T02:11:26.491Z,5.57
2022-12-19T02:16:43.195Z,5.55
2022-12-19T02:21:56.588Z,5.63
2022-12-19T02:27:40.218Z,5.55
2022-12-19T02:33:01.942Z,5.28
2022-12-19T02:38:19.852Z,5.25
2022-12-19T02:43:25.459Z,5.07
2022-12-19T02:48:32.713Z,4.80
2022-12-19T02:53:38.985Z,4.85
2022-12-19T02:59:14.968Z,5.20
2022-12-19T03:04:36.975Z,4.95
2022-12-19T03:09:49.780Z,4.50
2022-12-19T03:14:59.145Z,4.95
2022-12-19T03:20:11.369Z,4.55
2022-12-19T03:25:15.462Z,4.68
2022-12-19T03:30:19.076Z,4.28
2022-12-19T03:35:29.363Z,4.40
2022-12-19T03:40:36.155Z,4.40
2022-12-19T03:45:56.364Z,4.50
2022-12-19T03:51:17.650Z,4.60
2022-12-19T03:56:36.059Z,3.88
2022-12-19T04:01:41.693Z,3.95
2022-12-19T04:06:48.639Z,4.18
2022-12-19T04:11:58.474Z,4.03
2022-12-19T04:17:14.739Z,3.90
2022-12-19T04:22:28.028Z,3.85
2022-12-19T04:27:34.173Z,4.07
2022-12-19T04:32:38.451Z,3.67
2022-12-19T04:37:44.056Z,3.80
2022-12-19T04:42:47.607Z,4.00
2022-12-19T04:47:51.267Z,3.95
2022-12-19T04:53:03.975Z,3.60
2022-12-19T04:58:08.286Z,3.15
2022-12-19T05:03:11.873Z,3.50
2022-12-19T05:08:16.965Z,3.55
2022-12-19T05:13:20.650Z,3.13
2022-12-19T05:18:24.238Z,3.47
2022-12-19T05:23:29.812Z,3.30
2022-12-19T05:28:34.569Z,3.50
2022-12-19T05:33:40.698Z,3.30
2022-12-19T05:38:45.932Z,3.53
2022-12-19T05:43:54.683Z,3.30
2022-12-19T05:48:59.366Z,3.28
2022-12-19T05:54:05.716Z,3.20
2022-12-19T05:59:09.209Z,3.30
2022-12-19T06:04:12.851Z,3.10
2022-12-19T06:09:17.971Z,3.00
2022-12-19T06:14:22.232Z,2.80
2022-12-19T06:19:27.252Z,2.65
2022-12-19T06:24:32.368Z,2.85
2022-12-19T06:29:35.935Z,2.63
2022-12-19T06:35:03.075Z,2.95
2022-12-19T06:40:05.099Z,2.60
2022-12-19T06:45:10.264Z,2.80
2022-12-19T06:50:13.843Z,2.63
2022-12-19T06:55:18.893Z,2.75
2022-12-19T07:00:23.102Z,2.60
2022-12-19T07:05:27.108Z,2.70
2022-12-19T07:10:32.237Z,2.60
2022-12-19T07:15:37.946Z,2.53
2022-12-19T07:20:45.272Z,2.33
2022-12-19T07:25:50.800Z,2.58
2022-12-19T07:30:54.539Z,2.45
2022-12-19T07:35:58.443Z,2.45
2022-12-19T07:41:04.542Z,2.40
2022-12-19T07:46:08.294Z,2.20
2022-12-19T07:51:11.968Z,2.65
2022-12-19T07:56:17.445Z,2.35
2022-12-19T08:01:21.486Z,2.13
2022-12-19T08:06:25.234Z,2.17
2022-12-19T08:11:30.500Z,2.30
2022-12-19T08:16:49.335Z,2.13
2022-12-19T08:21:57.843Z,2.10
2022-12-19T08:27:02.928Z,2.30
2022-12-19T08:32:06.835Z,2.03
2022-12-19T08:37:11.036Z,1.67
2022-12-19T08:42:16.103Z,2.05
2022-12-19T08:47:19.679Z,2.20
2022-12-19T08:52:23.331Z,2.03
2022-12-19T08:57:28.289Z,2.10
2022-12-19T09:02:32.049Z,1.90
2022-12-19T09:07:38.871Z,1.80
2022-12-19T09:12:44.581Z,1.85
2022-12-19T09:17:48.192Z,2.50
2022-12-19T09:22:51.877Z,5.30
2022-12-19T09:28:26.438Z,12.57
2022-12-19T09:33:20.372Z,11.77
2022-12-19T09:38:25.633Z,11.85
2022-12-19T09:43:51.938Z,11.63
2022-12-19T09:49:01.491Z,11.70
2022-12-19T09:54:15.302Z,11.40
2022-12-19T09:59:31.728Z,11.15
2022-12-19T10:04:56.408Z,11.27
2022-12-19T10:12:33.119Z,10.80
2022-12-19T10:15:59.848Z,10.75
2022-12-19T10:21:10.916Z,11.27
2022-12-19T10:26:21.828Z,10.80
2022-12-19T10:31:37.509Z,10.73
2022-12-19T10:42:18.757Z,10.48
2022-12-19T10:47:24.114Z,10.13
2022-12-19T10:52:52.946Z,10.52
2022-12-19T10:58:02.085Z,10.38
2022-12-19T11:03:18.945Z,9.40
2022-12-19T11:08:27.582Z,9.65
2022-12-19T11:18:51.977Z,8.20
2022-12-19T11:29:17.730Z,7.25
2022-12-19T11:30:34.379Z,7.28
2022-12-19T11:35:54.239Z,8.80
2022-12-19T11:41:00.745Z,7.85
2022-12-19T11:46:15.001Z,7.57
2022-12-19T11:51:34.139Z,6.70
2022-12-19T11:56:37.859Z,7.28
2022-12-19T12:02:07.925Z,6.63
2022-12-19T12:07:20.188Z,6.53
2022-12-19T12:22:48.665Z,6.68
2022-12-19T12:31:19.171Z,6.90
2022-12-19T12:31:48.870Z,6.13
2022-12-19T12:31:58.264Z,6.53
2022-12-19T12:41:45.198Z,6.05
2022-12-19T12:46:53.355Z,6.18
2022-12-19T12:51:57.542Z,5.70
2022-12-19T12:57:03.566Z,5.15
2022-12-19T13:02:18.532Z,5.95
2022-12-19T13:07:41.876Z,5.45
2022-12-19T13:13:05.149Z,5.45
2022-12-19T13:18:33.175Z,5.60
2022-12-19T13:23:48.898Z,5.45
2022-12-19T13:28:54.011Z,5.13
2022-12-19T13:34:20.569Z,4.72
2022-12-19T13:39:54.779Z,4.60
2022-12-19T13:45:14.529Z,4.50
2022-12-19T13:50:27.105Z,4.55
2022-12-19T13:55:31.444Z,4.72
2022-12-19T14:00:43.048Z,4.28
2022-12-19T14:06:16.636Z,4.10
2022-12-19T14:11:35.050Z,4.38
2022-12-19T14:16:43.820Z,4.18
2022-12-19T14:22:11.848Z,4.20
2022-12-19T14:28:18.525Z,3.90
2022-12-19T14:33:46.161Z,4.05
2022-12-19T14:39:19.388Z,3.97
2022-12-19T14:43:58.959Z,3.60
2022-12-19T14:54:11.034Z,4.22
2022-12-19T14:56:08.742Z,3.42
2022-12-19T15:01:09.070Z,3.42
2022-12-19T15:07:07.984Z,3.33
2022-12-19T15:12:39.447Z,3.70
2022-12-19T15:17:29.294Z,3.83
2022-12-19T15:22:34.260Z,3.10
2022-12-19T15:27:44.975Z,3.58
2022-12-19T15:32:49.538Z,3.03
2022-12-19T15:37:54.478Z,3.17
2022-12-19T15:42:59.713Z,3.08
2022-12-19T15:48:03.368Z,2.97
2022-12-19T15:53:34.494Z,3.03
2022-12-19T15:58:41.941Z,2.90
2022-12-19T16:03:45.772Z,3.00
2022-12-19T16:08:50.980Z,2.70
2022-12-19T16:13:58.424Z,2.92
2022-12-19T16:19:01.993Z,2.77
2022-12-19T16:24:08.421Z,2.63
2022-12-19T16:29:20.627Z,3.00
2022-12-19T16:34:26.434Z,2.63
2022-12-19T16:39:31.424Z,2.58
2022-12-19T16:44:36.911Z,2.70
2022-12-19T16:49:40.589Z,2.50
2022-12-19T16:54:45.569Z,2.35
2022-12-19T16:59:50.999Z,2.63
2022-12-19T17:04:54.699Z,2.53
2022-12-19T17:09:59.653Z,2.40
2022-12-19T17:15:04.230Z,2.90
2022-12-19T17:20:14.929Z,2.50
2022-12-19T17:25:25.480Z,2.70
2022-12-19T17:30:29.390Z,2.67
2022-12-19T17:35:37.563Z,2.83
2022-12-19T17:40:43.412Z,2.45
2022-12-19T17:45:47.205Z,2.80
2022-12-19T17:50:51.906Z,2.45
2022-12-19T17:55:57.058Z,2.30
2022-12-19T18:01:00.736Z,2.60
2022-12-19T18:06:08.759Z,2.83
2022-12-19T18:11:22.618Z,2.58
2022-12-19T18:16:30.994Z,2.63
2022-12-19T18:21:34.802Z,2.78
2022-12-19T18:26:39.884Z,2.70
2022-12-19T18:31:50.569Z,2.50
2022-12-19T18:36:56.895Z,2.60
2022-12-19T18:42:02.281Z,2.45
2022-12-19T18:47:06.670Z,2.65
2022-12-19T18:52:13.141Z,2.50
2022-12-19T18:57:18.292Z,2.20
2022-12-19T19:02:28.399Z,2.42
2022-12-19T19:07:32.788Z,2.00
2022-12-19T19:12:37.735Z,2.08
2022-12-19T19:17:43.613Z,2.00
2022-12-19T19:22:47.704Z,2.45
2022-12-19T19:27:52.774Z,2.00
2022-12-19T19:33:01.033Z,2.05
2022-12-19T19:38:08.754Z,2.30
2022-12-19T19:43:13.851Z,2.00
2022-12-19T19:48:17.635Z,2.17
2022-12-19T19:53:21.890Z,1.83
2022-12-19T19:58:27.003Z,1.95
2022-12-19T20:03:30.757Z,2.17
2022-12-19T20:08:39.540Z,2.13
2022-12-19T20:13:45.865Z,2.17
2022-12-19T20:18:52.913Z,1.92
2022-12-19T20:23:56.678Z,2.20
2022-12-19T20:29:02.177Z,2.15
2022-12-19T20:34:05.808Z,2.38
2022-12-19T20:39:10.946Z,2.20
2022-12-19T20:44:22.089Z,1.80
2022-12-19T20:49:27.949Z,2.70
2022-12-19T20:54:31.796Z,2.40
2022-12-19T20:59:36.917Z,2.47
2022-12-19T21:04:41.222Z,2.40
2022-12-19T21:09:45.282Z,2.25
2022-12-19T21:14:50.870Z,2.30
2022-12-19T21:19:54.530Z,2.10
2022-12-19T21:24:58.220Z,2.10
2022-12-19T21:30:03.272Z,2.15
2022-12-19T21:35:09.021Z,2.15
2022-12-19T21:40:14.260Z,2.05
2022-12-19T21:45:19.843Z,1.80
2022-12-19T21:50:23.496Z,2.17
2022-12-19T21:55:27.233Z,2.08
2022-12-19T22:00:32.223Z,2.10
2022-12-19T22:05:35.918Z,2.13
2022-12-19T22:10:40.211Z,1.90
2022-12-19T22:15:45.179Z,2.30
2022-12-19T22:20:48.770Z,2.25
2022-12-19T22:26:03.075Z,2.50
2022-12-19T22:31:19.115Z,2.25
2022-12-19T22:36:28.479Z,2.55
2022-12-19T22:41:35.319Z,2.45
2022-12-19T22:46:40.816Z,2.53
2022-12-19T22:51:45.900Z,2.25
2022-12-19T22:56:52.281Z,2.47
2022-12-19T23:01:57.395Z,2.47
2022-12-19T23:07:01.149Z,2.47
2022-12-19T23:12:05.069Z,2.50
2022-12-19T23:17:10.227Z,2.70
2022-12-19T23:22:13.949Z,2.50
2022-12-19T23:27:17.629Z,2.35
2022-12-19T23:32:22.603Z,2.53
2022-12-19T23:37:26.212Z,2.60
2022-12-19T23:42:29.998Z,2.45
2022-12-19T23:47:35.161Z,2.67
2022-12-19T23:52:38.827Z,2.53
2022-12-19T23:57:42.471Z,2.63
